sensor_id;sensor_type;location;lat;lon;timestamp;temperature;humidity
5621;DHT22;2832;50.864;12.186;2024-01-15T00:01:24;6.10;99.90
5621;DHT22;2832;50.864;12.186;2024-01-15T00:03:52;6.10;99.90
5621;DHT22;2832;50.864;12.186;2024-01-15T00:06:20;6.10;99.90
5621;DHT22;2832;50.864;12.186;2024-01-15T00:08:49;6.10;99.90
5621;DHT22;2832;50.864;12.186;2024-01-15T00:15:07;6.10;99.90
5621;DHT22;2832;50.864;12.186;2024-01-15T00:17:36;6.10;99.90
5621;DHT22;2832;50.864;12.186;2024-01-15T00:20:06;6.10;99.90
5621;DHT22;2832;50.864;12.186;2024-01-15T00:22:35;6.10;99.90
5621;DHT22;2832;50.864;12.186;2024-01-15T00:25:06;6.10;99.90
5621;DHT22;2832;50.864;12.186;2024-01-15T00:27:43;6.00;99.90
5621;DHT22;2832;50.864;12.186;2024-01-15T00:30:14;6.00;99.90
5621;DHT22;2832;50.864;12.186;2024-01-15T00:32:42;6.00;99.90
5621;DHT22;2832;50.864;12.186;2024-01-15T00:35:12;6.00;99.90
5621;DHT22;2832;50.864;12.186;2024-01-15T00:37:40;6.10;99.90
5621;DHT22;2832;50.864;12.186;2024-01-15T00:40:15;6.00;99.90
5621;DHT22;2832;50.864;12.186;2024-01-15T00:42:44;6.10;99.90
5621;DHT22;2832;50.864;12.186;2024-01-15T00:45:15;6.00;99.90
5621;DHT22;2832;50.864;12.186;2024-01-15T00:47:43;6.00;99.90
5621;DHT22;2832;50.864;12.186;2024-01-15T00:50:34;6.00;99.90
5621;DHT22;2832;50.864;12.186;2024-01-15T00:53:03;6.00;99.90
5621;DHT22;2832;50.864;12.186;2024-01-15T00:55:32;6.00;99.90
5621;DHT22;2832;50.864;12.186;2024-01-15T00:58:01;6.00;99.90
5621;DHT22;2832;50.864;12.186;2024-01-15T01:00:31;6.00;99.90
5621;DHT22;2832;50.864;12.186;2024-01-15T01:03:01;6.00;99.90
5621;DHT22;2832;50.864;12.186;2024-01-15T01:05:31;6.00;99.90
5621;DHT22;2832;50.864;12.186;2024-01-15T01:08:03;6.00;99.90
5621;DHT22;2832;50.864;12.186;2024-01-15T01:10:38;6.00;99.90
5621;DHT22;2832;50.864;12.186;2024-01-15T01:13:06;6.00;99.90
5621;DHT22;2832;50.864;12.186;2024-01-15T01:15:39;6.00;99.90
5621;DHT22;2832;50.864;12.186;2024-01-15T01:18:08;6.10;99.90
5621;DHT22;2832;50.864;12.186;2024-01-15T01:20:38;6.10;99.90
5621;DHT22;2832;50.864;12.186;2024-01-15T01:23:09;6.00;99.90
5621;DHT22;2832;50.864;12.186;2024-01-15T01:25:38;6.00;99.90
5621;DHT22;2832;50.864;12.186;2024-01-15T01:28:08;6.10;99.90
5621;DHT22;2832;50.864;12.186;2024-01-15T01:30:41;6.00;99.90
5621;DHT22;2832;50.864;12.186;2024-01-15T01:33:10;6.00;99.90
5621;DHT22;2832;50.864;12.186;2024-01-15T01:35:39;6.10;99.90
5621;DHT22;2832;50.864;12.186;2024-01-15T01:38:10;6.00;99.90
5621;DHT22;2832;50.864;12.186;2024-01-15T01:40:39;6.00;99.90
5621;DHT22;2832;50.864;12.186;2024-01-15T01:43:09;6.00;99.90
5621;DHT22;2832;50.864;12.186;2024-01-15T01:45:42;6.00;99.90
5621;DHT22;2832;50.864;12.186;2024-01-15T01:48:12;6.00;99.90
5621;DHT22;2832;50.864;12.186;2024-01-15T01:50:41;6.10;99.90
5621;DHT22;2832;50.864;12.186;2024-01-15T01:53:17;6.10;99.90
5621;DHT22;2832;50.864;12.186;2024-01-15T01:55:54;6.10;99.90
5621;DHT22;2832;50.864;12.186;2024-01-15T01:58:26;6.10;99.90
5621;DHT22;2832;50.864;12.186;2024-01-15T02:00:57;6.00;99.90
5621;DHT22;2832;50.864;12.186;2024-01-15T02:03:27;6.00;99.90
5621;DHT22;2832;50.864;12.186;2024-01-15T02:06:00;6.00;99.90
5621;DHT22;2832;50.864;12.186;2024-01-15T02:08:29;6.00;99.90
5621;DHT22;2832;50.864;12.186;2024-01-15T02:10:59;6.00;99.90
5621;DHT22;2832;50.864;12.186;2024-01-15T02:13:30;6.00;99.90
5621;DHT22;2832;50.864;12.186;2024-01-15T02:16:00;6.00;99.90
5621;DHT22;2832;50.864;12.186;2024-01-15T02:18:40;6.10;99.90
5621;DHT22;2832;50.864;12.186;2024-01-15T02:21:08;6.00;99.90
5621;DHT22;2832;50.864;12.186;2024-01-15T02:23:45;6.00;99.90
5621;DHT22;2832;50.864;12.186;2024-01-15T02:26:15;6.00;99.90
5621;DHT22;2832;50.864;12.186;2024-01-15T02:28:45;6.00;99.90
5621;DHT22;2832;50.864;12.186;2024-01-15T02:31:19;6.00;99.90
5621;DHT22;2832;50.864;12.186;2024-01-15T02:33:52;6.00;99.90
5621;DHT22;2832;50.864;12.186;2024-01-15T02:36:20;6.00;99.90
5621;DHT22;2832;50.864;12.186;2024-01-15T02:38:53;5.90;99.90
5621;DHT22;2832;50.864;12.186;2024-01-15T02:41:23;6.00;99.90
5621;DHT22;2832;50.864;12.186;2024-01-15T02:43:57;6.00;99.90
5621;DHT22;2832;50.864;12.186;2024-01-15T02:46:28;6.00;99.90
5621;DHT22;2832;50.864;12.186;2024-01-15T02:49:00;6.00;99.90
5621;DHT22;2832;50.864;12.186;2024-01-15T02:51:34;6.00;99.90
5621;DHT22;2832;50.864;12.186;2024-01-15T02:54:07;5.90;99.90
5621;DHT22;2832;50.864;12.186;2024-01-15T02:56:37;5.90;99.90
5621;DHT22;2832;50.864;12.186;2024-01-15T02:59:08;5.90;99.90
5621;DHT22;2832;50.864;12.186;2024-01-15T03:10:01;5.90;99.90
5621;DHT22;2832;50.864;12.186;2024-01-15T03:12:37;5.90;99.90
5621;DHT22;2832;50.864;12.186;2024-01-15T03:15:11;5.90;99.90
5621;DHT22;2832;50.864;12.186;2024-01-15T03:17:41;5.90;99.90
5621;DHT22;2832;50.864;12.186;2024-01-15T03:20:12;5.90;99.90
5621;DHT22;2832;50.864;12.186;2024-01-15T03:22:43;5.90;99.90
5621;DHT22;2832;50.864;12.186;2024-01-15T03:25:24;5.90;99.90
5621;DHT22;2832;50.864;12.186;2024-01-15T03:27:54;5.80;99.90
5621;DHT22;2832;50.864;12.186;2024-01-15T03:30:24;5.80;99.90
5621;DHT22;2832;50.864;12.186;2024-01-15T03:32:56;5.80;99.90
5621;DHT22;2832;50.864;12.186;2024-01-15T03:35:27;5.80;99.90
5621;DHT22;2832;50.864;12.186;2024-01-15T03:37:58;5.90;99.90
5621;DHT22;2832;50.864;12.186;2024-01-15T03:40:34;5.80;99.90
5621;DHT22;2832;50.864;12.186;2024-01-15T03:43:05;5.90;99.90
5621;DHT22;2832;50.864;12.186;2024-01-15T03:45:34;5.90;99.90
5621;DHT22;2832;50.864;12.186;2024-01-15T03:48:09;5.90;99.90
5621;DHT22;2832;50.864;12.186;2024-01-15T03:50:42;5.90;99.90
5621;DHT22;2832;50.864;12.186;2024-01-15T03:53:13;5.90;99.90
5621;DHT22;2832;50.864;12.186;2024-01-15T03:55:47;5.90;99.90
5621;DHT22;2832;50.864;12.186;2024-01-15T03:58:22;6.00;99.90
5621;DHT22;2832;50.864;12.186;2024-01-15T04:00:54;6.00;99.90
5621;DHT22;2832;50.864;12.186;2024-01-15T04:03:26;6.00;99.90
5621;DHT22;2832;50.864;12.186;2024-01-15T04:05:59;6.00;99.90
5621;DHT22;2832;50.864;12.186;2024-01-15T04:08:28;6.00;99.90
5621;DHT22;2832;50.864;12.186;2024-01-15T04:11:04;6.00;99.90
5621;DHT22;2832;50.864;12.186;2024-01-15T04:13:40;6.00;99.90
5621;DHT22;2832;50.864;12.186;2024-01-15T04:16:11;5.90;99.90
5621;DHT22;2832;50.864;12.186;2024-01-15T04:18:45;5.90;99.90
5621;DHT22;2832;50.864;12.186;2024-01-15T04:21:13;5.90;99.90
5621;DHT22;2832;50.864;12.186;2024-01-15T04:23:43;5.90;99.90
5621;DHT22;2832;50.864;12.186;2024-01-15T04:26:17;5.90;99.90
5621;DHT22;2832;50.864;12.186;2024-01-15T04:28:50;6.00;99.90
5621;DHT22;2832;50.864;12.186;2024-01-15T04:31:25;5.90;99.90
5621;DHT22;2832;50.864;12.186;2024-01-15T04:33:55;5.90;99.90
5621;DHT22;2832;50.864;12.186;2024-01-15T04:36:26;5.90;99.90
5621;DHT22;2832;50.864;12.186;2024-01-15T04:38:58;5.80;99.90
5621;DHT22;2832;50.864;12.186;2024-01-15T04:41:30;5.90;99.90
5621;DHT22;2832;50.864;12.186;2024-01-15T04:44:34;5.90;99.90
5621;DHT22;2832;50.864;12.186;2024-01-15T04:47:13;5.90;99.90
5621;DHT22;2832;50.864;12.186;2024-01-15T04:49:46;5.90;99.90
5621;DHT22;2832;50.864;12.186;2024-01-15T04:52:18;5.90;99.90
5621;DHT22;2832;50.864;12.186;2024-01-15T04:54:47;5.90;99.90
5621;DHT22;2832;50.864;12.186;2024-01-15T04:57:26;5.90;99.90
5621;DHT22;2832;50.864;12.186;2024-01-15T05:00:06;5.90;99.90
5621;DHT22;2832;50.864;12.186;2024-01-15T05:02:40;5.90;99.90
5621;DHT22;2832;50.864;12.186;2024-01-15T05:05:11;5.90;99.90
5621;DHT22;2832;50.864;12.186;2024-01-15T05:07:41;5.80;99.90
5621;DHT22;2832;50.864;12.186;2024-01-15T05:10:18;5.90;99.90
5621;DHT22;2832;50.864;12.186;2024-01-15T05:12:55;5.90;99.90
5621;DHT22;2832;50.864;12.186;2024-01-15T05:15:28;5.90;99.90
5621;DHT22;2832;50.864;12.186;2024-01-15T05:17:59;5.90;99.90
5621;DHT22;2832;50.864;12.186;2024-01-15T05:20:33;5.80;99.90
5621;DHT22;2832;50.864;12.186;2024-01-15T05:23:04;5.90;99.90
5621;DHT22;2832;50.864;12.186;2024-01-15T05:25:47;5.90;99.90
5621;DHT22;2832;50.864;12.186;2024-01-15T05:32:01;5.90;99.90
5621;DHT22;2832;50.864;12.186;2024-01-15T05:34:58;5.90;99.90
5621;DHT22;2832;50.864;12.186;2024-01-15T05:37:35;5.90;99.90
5621;DHT22;2832;50.864;12.186;2024-01-15T05:40:10;5.90;99.90
5621;DHT22;2832;50.864;12.186;2024-01-15T05:42:45;5.80;99.90
5621;DHT22;2832;50.864;12.186;2024-01-15T05:49:26;5.80;99.90
5621;DHT22;2832;50.864;12.186;2024-01-15T05:51:59;5.90;99.90
5621;DHT22;2832;50.864;12.186;2024-01-15T05:54:33;5.90;99.90
5621;DHT22;2832;50.864;12.186;2024-01-15T05:57:06;5.80;99.90
5621;DHT22;2832;50.864;12.186;2024-01-15T05:59:56;5.90;99.90
5621;DHT22;2832;50.864;12.186;2024-01-15T06:02:31;5.90;99.90
5621;DHT22;2832;50.864;12.186;2024-01-15T06:31:18;6.00;99.90
5621;DHT22;2832;50.864;12.186;2024-01-15T06:34:52;6.00;99.90
5621;DHT22;2832;50.864;12.186;2024-01-15T06:37:45;5.90;99.90
5621;DHT22;2832;50.864;12.186;2024-01-15T06:40:53;5.90;99.90
5621;DHT22;2832;50.864;12.186;2024-01-15T06:44:07;5.90;99.90
5621;DHT22;2832;50.864;12.186;2024-01-15T06:47:44;5.90;99.90
5621;DHT22;2832;50.864;12.186;2024-01-15T06:50:45;5.90;99.90
5621;DHT22;2832;50.864;12.186;2024-01-15T06:53:39;5.90;99.90
5621;DHT22;2832;50.864;12.186;2024-01-15T06:56:47;5.80;99.90
5621;DHT22;2832;50.864;12.186;2024-01-15T06:59:33;5.80;99.90
5621;DHT22;2832;50.864;12.186;2024-01-15T07:02:18;5.90;99.90
5621;DHT22;2832;50.864;12.186;2024-01-15T07:04:59;5.80;99.90
5621;DHT22;2832;50.864;12.186;2024-01-15T07:07:35;5.80;99.90
5621;DHT22;2832;50.864;12.186;2024-01-15T07:10:10;5.80;99.90
5621;DHT22;2832;50.864;12.186;2024-01-15T07:13:12;5.80;99.90
5621;DHT22;2832;50.864;12.186;2024-01-15T07:16:19;5.80;99.90
5621;DHT22;2832;50.864;12.186;2024-01-15T07:19:07;5.90;99.90
5621;DHT22;2832;50.864;12.186;2024-01-15T07:22:19;5.80;99.90
5621;DHT22;2832;50.864;12.186;2024-01-15T07:25:22;5.80;99.90
5621;DHT22;2832;50.864;12.186;2024-01-15T07:27:56;5.80;99.90
5621;DHT22;2832;50.864;12.186;2024-01-15T07:30:38;5.80;99.90
5621;DHT22;2832;50.864;12.186;2024-01-15T07:33:33;5.80;99.90
5621;DHT22;2832;50.864;12.186;2024-01-15T07:39:22;5.80;99.90
5621;DHT22;2832;50.864;12.186;2024-01-15T07:41:57;5.70;99.90
5621;DHT22;2832;50.864;12.186;2024-01-15T07:44:58;5.70;99.90
5621;DHT22;2832;50.864;12.186;2024-01-15T07:47:34;5.70;99.90
5621;DHT22;2832;50.864;12.186;2024-01-15T07:50:18;5.70;99.90
5621;DHT22;2832;50.864;12.186;2024-01-15T07:53:29;5.70;99.90
5621;DHT22;2832;50.864;12.186;2024-01-15T07:56:16;5.70;99.90
5621;DHT22;2832;50.864;12.186;2024-01-15T07:58:52;5.70;99.90
5621;DHT22;2832;50.864;12.186;2024-01-15T08:02:05;5.70;99.90
5621;DHT22;2832;50.864;12.186;2024-01-15T08:04:43;5.70;99.90
5621;DHT22;2832;50.864;12.186;2024-01-15T08:07:13;5.70;99.90
5621;DHT22;2832;50.864;12.186;2024-01-15T08:15:24;5.70;99.90
5621;DHT22;2832;50.864;12.186;2024-01-15T08:22:07;5.70;99.90
5621;DHT22;2832;50.864;12.186;2024-01-15T08:24:48;5.70;99.90
5621;DHT22;2832;50.864;12.186;2024-01-15T08:27:22;5.70;99.90
5621;DHT22;2832;50.864;12.186;2024-01-15T08:30:10;5.70;99.90
5621;DHT22;2832;50.864;12.186;2024-01-15T08:33:17;5.70;99.90
5621;DHT22;2832;50.864;12.186;2024-01-15T08:36:33;5.70;99.90
5621;DHT22;2832;50.864;12.186;2024-01-15T08:52:20;5.70;99.90
5621;DHT22;2832;50.864;12.186;2024-01-15T08:55:25;5.70;99.90
5621;DHT22;2832;50.864;12.186;2024-01-15T08:58:17;5.70;99.90
5621;DHT22;2832;50.864;12.186;2024-01-15T09:04:59;5.70;99.90
5621;DHT22;2832;50.864;12.186;2024-01-15T09:08:26;5.70;99.90
5621;DHT22;2832;50.864;12.186;2024-01-15T09:11:44;5.70;99.90
5621;DHT22;2832;50.864;12.186;2024-01-15T09:14:35;5.70;99.90
5621;DHT22;2832;50.864;12.186;2024-01-15T09:17:14;5.70;99.90
5621;DHT22;2832;50.864;12.186;2024-01-15T09:20:09;5.60;99.90
5621;DHT22;2832;50.864;12.186;2024-01-15T09:22:46;5.70;99.90
5621;DHT22;2832;50.864;12.186;2024-01-15T09:25:29;5.70;99.90
5621;DHT22;2832;50.864;12.186;2024-01-15T09:31:32;5.70;99.90
5621;DHT22;2832;50.864;12.186;2024-01-15T09:34:14;5.70;99.90
5621;DHT22;2832;50.864;12.186;2024-01-15T09:37:09;5.70;99.90
5621;DHT22;2832;50.864;12.186;2024-01-15T09:55:24;5.80;99.90
5621;DHT22;2832;50.864;12.186;2024-01-15T09:58:09;5.80;99.90
5621;DHT22;2832;50.864;12.186;2024-01-15T10:08:11;5.80;99.90
5621;DHT22;2832;50.864;12.186;2024-01-15T10:10:50;5.70;99.90
5621;DHT22;2832;50.864;12.186;2024-01-15T10:13:28;5.80;99.90
5621;DHT22;2832;50.864;12.186;2024-01-15T10:16:14;5.80;99.90
5621;DHT22;2832;50.864;12.186;2024-01-15T10:19:13;5.80;99.90
5621;DHT22;2832;50.864;12.186;2024-01-15T10:21:46;5.80;99.90
5621;DHT22;2832;50.864;12.186;2024-01-15T10:24:47;5.80;99.90
5621;DHT22;2832;50.864;12.186;2024-01-15T10:32:25;5.80;99.90
5621;DHT22;2832;50.864;12.186;2024-01-15T10:45:24;5.90;99.90
5621;DHT22;2832;50.864;12.186;2024-01-15T10:48:25;5.90;99.90
5621;DHT22;2832;50.864;12.186;2024-01-15T10:51:02;5.80;99.90
5621;DHT22;2832;50.864;12.186;2024-01-15T10:54:12;5.80;99.90
5621;DHT22;2832;50.864;12.186;2024-01-15T10:59:28;5.80;99.90
5621;DHT22;2832;50.864;12.186;2024-01-15T11:08:10;5.80;99.90
5621;DHT22;2832;50.864;12.186;2024-01-15T11:10:50;5.80;99.90
5621;DHT22;2832;50.864;12.186;2024-01-15T11:13:48;5.80;99.90
5621;DHT22;2832;50.864;12.186;2024-01-15T11:16:55;5.80;99.90
5621;DHT22;2832;50.864;12.186;2024-01-15T11:19:44;5.80;99.90
5621;DHT22;2832;50.864;12.186;2024-01-15T11:22:48;5.80;99.90
5621;DHT22;2832;50.864;12.186;2024-01-15T11:25:45;5.90;99.90
5621;DHT22;2832;50.864;12.186;2024-01-15T11:28:52;5.90;99.90
5621;DHT22;2832;50.864;12.186;2024-01-15T11:39:46;5.90;99.90
5621;DHT22;2832;50.864;12.186;2024-01-15T11:42:56;5.90;99.90
5621;DHT22;2832;50.864;12.186;2024-01-15T11:45:33;5.90;99.90
5621;DHT22;2832;50.864;12.186;2024-01-15T11:48:14;5.90;99.90
5621;DHT22;2832;50.864;12.186;2024-01-15T11:54:08;6.00;99.90
5621;DHT22;2832;50.864;12.186;2024-01-15T11:56:44;6.00;99.90
5621;DHT22;2832;50.864;12.186;2024-01-15T11:59:23;6.00;99.90
5621;DHT22;2832;50.864;12.186;2024-01-15T12:07:19;6.00;99.90
5621;DHT22;2832;50.864;12.186;2024-01-15T12:10:34;6.00;99.90
5621;DHT22;2832;50.864;12.186;2024-01-15T12:13:59;5.90;99.90
5621;DHT22;2832;50.864;12.186;2024-01-15T12:16:50;6.00;99.90
5621;DHT22;2832;50.864;12.186;2024-01-15T12:19:44;6.00;99.90
5621;DHT22;2832;50.864;12.186;2024-01-15T12:22:25;6.00;99.90
5621;DHT22;2832;50.864;12.186;2024-01-15T12:25:07;6.00;99.90
5621;DHT22;2832;50.864;12.186;2024-01-15T12:28:11;6.00;99.90
5621;DHT22;2832;50.864;12.186;2024-01-15T12:40:45;6.20;99.90
5621;DHT22;2832;50.864;12.186;2024-01-15T12:43:42;6.30;99.90
5621;DHT22;2832;50.864;12.186;2024-01-15T12:46:15;6.20;99.90
5621;DHT22;2832;50.864;12.186;2024-01-15T12:48:56;6.20;99.90
5621;DHT22;2832;50.864;12.186;2024-01-15T12:51:37;6.20;99.90
5621;DHT22;2832;50.864;12.186;2024-01-15T12:54:16;6.20;99.90
5621;DHT22;2832;50.864;12.186;2024-01-15T12:57:18;6.30;99.90
5621;DHT22;2832;50.864;12.186;2024-01-15T12:59:54;6.40;99.90
5621;DHT22;2832;50.864;12.186;2024-01-15T13:02:37;6.30;99.90
5621;DHT22;2832;50.864;12.186;2024-01-15T13:05:20;6.40;99.90
5621;DHT22;2832;50.864;12.186;2024-01-15T13:11:48;6.40;99.90
5621;DHT22;2832;50.864;12.186;2024-01-15T13:17:48;6.40;99.90
5621;DHT22;2832;50.864;12.186;2024-01-15T13:20:30;6.50;99.90
5621;DHT22;2832;50.864;12.186;2024-01-15T13:23:15;6.50;99.90
5621;DHT22;2832;50.864;12.186;2024-01-15T13:25:51;6.50;99.90
5621;DHT22;2832;50.864;12.186;2024-01-15T13:34:23;6.60;99.90
5621;DHT22;2832;50.864;12.186;2024-01-15T13:42:12;6.60;99.90
5621;DHT22;2832;50.864;12.186;2024-01-15T13:47:42;6.70;99.90
5621;DHT22;2832;50.864;12.186;2024-01-15T14:01:26;6.80;99.90
5621;DHT22;2832;50.864;12.186;2024-01-15T14:04:14;6.80;99.90
5621;DHT22;2832;50.864;12.186;2024-01-15T14:06:49;6.80;99.90
5621;DHT22;2832;50.864;12.186;2024-01-15T14:09:36;6.90;99.90
5621;DHT22;2832;50.864;12.186;2024-01-15T14:12:11;6.80;99.90
5621;DHT22;2832;50.864;12.186;2024-01-15T14:15:05;6.90;99.90
5621;DHT22;2832;50.864;12.186;2024-01-15T14:17:54;6.90;99.90
5621;DHT22;2832;50.864;12.186;2024-01-15T14:20:35;6.80;99.90
5621;DHT22;2832;50.864;12.186;2024-01-15T14:23:09;6.80;99.90
5621;DHT22;2832;50.864;12.186;2024-01-15T14:26:00;6.80;99.90
5621;DHT22;2832;50.864;12.186;2024-01-15T14:28:34;6.90;99.90
5621;DHT22;2832;50.864;12.186;2024-01-15T14:31:25;6.90;99.90
5621;DHT22;2832;50.864;12.186;2024-01-15T14:34:07;6.90;99.90
5621;DHT22;2832;50.864;12.186;2024-01-15T14:36:43;6.90;99.90
5621;DHT22;2832;50.864;12.186;2024-01-15T14:39:19;6.90;99.90
5621;DHT22;2832;50.864;12.186;2024-01-15T14:41:53;6.90;99.90
5621;DHT22;2832;50.864;12.186;2024-01-15T14:44:36;7.00;99.90
5621;DHT22;2832;50.864;12.186;2024-01-15T14:47:11;7.00;99.90
5621;DHT22;2832;50.864;12.186;2024-01-15T14:49:54;7.00;99.90
5621;DHT22;2832;50.864;12.186;2024-01-15T14:52:30;7.00;99.90
5621;DHT22;2832;50.864;12.186;2024-01-15T14:55:07;7.00;99.90
5621;DHT22;2832;50.864;12.186;2024-01-15T14:57:47;7.00;99.90
5621;DHT22;2832;50.864;12.186;2024-01-15T15:00:22;7.00;99.90
5621;DHT22;2832;50.864;12.186;2024-01-15T15:02:58;7.00;99.90
5621;DHT22;2832;50.864;12.186;2024-01-15T15:05:30;7.00;99.90
5621;DHT22;2832;50.864;12.186;2024-01-15T15:08:01;7.00;99.90
5621;DHT22;2832;50.864;12.186;2024-01-15T15:10:45;6.90;99.90
5621;DHT22;2832;50.864;12.186;2024-01-15T15:13:19;6.90;99.90
5621;DHT22;2832;50.864;12.186;2024-01-15T15:15:52;6.90;99.90
5621;DHT22;2832;50.864;12.186;2024-01-15T15:18:44;6.90;99.90
5621;DHT22;2832;50.864;12.186;2024-01-15T15:21:32;6.90;99.90
5621;DHT22;2832;50.864;12.186;2024-01-15T15:24:13;6.90;99.90
5621;DHT22;2832;50.864;12.186;2024-01-15T15:26:45;6.90;99.90
5621;DHT22;2832;50.864;12.186;2024-01-15T15:29:19;6.90;99.90
5621;DHT22;2832;50.864;12.186;2024-01-15T15:31:55;6.90;99.90
5621;DHT22;2832;50.864;12.186;2024-01-15T15:34:28;6.80;99.90
5621;DHT22;2832;50.864;12.186;2024-01-15T15:37:06;6.80;99.90
5621;DHT22;2832;50.864;12.186;2024-01-15T15:39:47;6.80;99.90
5621;DHT22;2832;50.864;12.186;2024-01-15T15:42:28;6.80;99.90
5621;DHT22;2832;50.864;12.186;2024-01-15T15:45:03;6.80;99.90
5621;DHT22;2832;50.864;12.186;2024-01-15T15:47:35;6.80;99.90
5621;DHT22;2832;50.864;12.186;2024-01-15T15:50:10;6.80;99.90
5621;DHT22;2832;50.864;12.186;2024-01-15T15:52:50;6.80;99.90
5621;DHT22;2832;50.864;12.186;2024-01-15T15:55:22;6.80;99.90
5621;DHT22;2832;50.864;12.186;2024-01-15T15:57:59;6.80;99.90
5621;DHT22;2832;50.864;12.186;2024-01-15T16:00:35;6.70;99.90
5621;DHT22;2832;50.864;12.186;2024-01-15T16:03:10;6.80;99.90
5621;DHT22;2832;50.864;12.186;2024-01-15T16:05:44;6.80;99.90
5621;DHT22;2832;50.864;12.186;2024-01-15T16:08:23;6.80;99.90
5621;DHT22;2832;50.864;12.186;2024-01-15T16:10:52;6.90;99.90
5621;DHT22;2832;50.864;12.186;2024-01-15T16:13:23;6.80;99.90
5621;DHT22;2832;50.864;12.186;2024-01-15T16:19:15;6.80;99.90
5621;DHT22;2832;50.864;12.186;2024-01-15T16:21:57;6.80;99.90
5621;DHT22;2832;50.864;12.186;2024-01-15T16:24:47;6.80;99.90
5621;DHT22;2832;50.864;12.186;2024-01-15T16:27:22;6.70;99.90
5621;DHT22;2832;50.864;12.186;2024-01-15T16:29:58;6.80;99.90
5621;DHT22;2832;50.864;12.186;2024-01-15T16:32:30;6.80;99.90
5621;DHT22;2832;50.864;12.186;2024-01-15T16:34:58;6.90;99.90
5621;DHT22;2832;50.864;12.186;2024-01-15T16:37:31;6.90;99.90
5621;DHT22;2832;50.864;12.186;2024-01-15T16:40:07;6.80;99.90
5621;DHT22;2832;50.864;12.186;2024-01-15T16:42:36;6.80;99.90
5621;DHT22;2832;50.864;12.186;2024-01-15T16:45:10;6.80;99.90
5621;DHT22;2832;50.864;12.186;2024-01-15T16:47:41;6.80;99.90
5621;DHT22;2832;50.864;12.186;2024-01-15T16:50:11;6.80;99.90
5621;DHT22;2832;50.864;12.186;2024-01-15T16:52:42;6.80;99.90
5621;DHT22;2832;50.864;12.186;2024-01-15T16:55:14;6.80;99.90
5621;DHT22;2832;50.864;12.186;2024-01-15T16:57:43;6.80;99.90
5621;DHT22;2832;50.864;12.186;2024-01-15T17:00:12;6.80;99.90
5621;DHT22;2832;50.864;12.186;2024-01-15T17:02:45;6.80;99.90
5621;DHT22;2832;50.864;12.186;2024-01-15T17:05:16;6.80;99.90
5621;DHT22;2832;50.864;12.186;2024-01-15T17:07:47;6.80;99.90
5621;DHT22;2832;50.864;12.186;2024-01-15T17:10:22;6.80;99.90
5621;DHT22;2832;50.864;12.186;2024-01-15T17:12:54;6.80;99.90
5621;DHT22;2832;50.864;12.186;2024-01-15T17:15:22;6.70;99.90
5621;DHT22;2832;50.864;12.186;2024-01-15T17:17:51;6.70;99.90
5621;DHT22;2832;50.864;12.186;2024-01-15T17:20:19;6.70;99.90
5621;DHT22;2832;50.864;12.186;2024-01-15T17:22:48;6.70;99.90
5621;DHT22;2832;50.864;12.186;2024-01-15T17:25:17;6.70;99.90
5621;DHT22;2832;50.864;12.186;2024-01-15T17:27:51;6.70;99.90
5621;DHT22;2832;50.864;12.186;2024-01-15T17:30:25;6.70;99.90
5621;DHT22;2832;50.864;12.186;2024-01-15T17:32:56;6.70;99.90
5621;DHT22;2832;50.864;12.186;2024-01-15T17:35:45;6.70;99.90
5621;DHT22;2832;50.864;12.186;2024-01-15T17:38:20;6.70;99.90
5621;DHT22;2832;50.864;12.186;2024-01-15T17:40:48;6.70;99.90
5621;DHT22;2832;50.864;12.186;2024-01-15T17:43:20;6.70;99.90
5621;DHT22;2832;50.864;12.186;2024-01-15T17:45:53;6.70;99.90
5621;DHT22;2832;50.864;12.186;2024-01-15T17:48:27;6.70;99.90
5621;DHT22;2832;50.864;12.186;2024-01-15T17:50:58;6.70;99.90
5621;DHT22;2832;50.864;12.186;2024-01-15T17:53:34;6.70;99.90
5621;DHT22;2832;50.864;12.186;2024-01-15T17:56:04;6.70;99.90
5621;DHT22;2832;50.864;12.186;2024-01-15T17:58:42;6.70;99.90
5621;DHT22;2832;50.864;12.186;2024-01-15T18:01:16;6.70;99.90
5621;DHT22;2832;50.864;12.186;2024-01-15T18:03:51;6.70;99.90
5621;DHT22;2832;50.864;12.186;2024-01-15T18:06:31;6.70;99.90
5621;DHT22;2832;50.864;12.186;2024-01-15T18:09:10;6.70;99.90
5621;DHT22;2832;50.864;12.186;2024-01-15T18:11:50;6.70;99.90
5621;DHT22;2832;50.864;12.186;2024-01-15T18:14:36;6.70;99.90
5621;DHT22;2832;50.864;12.186;2024-01-15T18:17:08;6.70;99.90
5621;DHT22;2832;50.864;12.186;2024-01-15T18:19:42;6.70;99.90
5621;DHT22;2832;50.864;12.186;2024-01-15T18:22:11;6.60;99.90
5621;DHT22;2832;50.864;12.186;2024-01-15T18:24:41;6.60;99.90
5621;DHT22;2832;50.864;12.186;2024-01-15T18:27:14;6.60;99.90
5621;DHT22;2832;50.864;12.186;2024-01-15T18:29:45;6.60;99.90
5621;DHT22;2832;50.864;12.186;2024-01-15T18:32:19;6.60;99.90
5621;DHT22;2832;50.864;12.186;2024-01-15T18:34:51;6.70;99.90
5621;DHT22;2832;50.864;12.186;2024-01-15T18:37:29;6.70;99.90
5621;DHT22;2832;50.864;12.186;2024-01-15T18:40:02;6.70;99.90
5621;DHT22;2832;50.864;12.186;2024-01-15T18:42:37;6.70;99.90
5621;DHT22;2832;50.864;12.186;2024-01-15T18:45:11;6.70;99.90
5621;DHT22;2832;50.864;12.186;2024-01-15T18:47:52;6.70;99.90
5621;DHT22;2832;50.864;12.186;2024-01-15T18:50:27;6.70;99.90
5621;DHT22;2832;50.864;12.186;2024-01-15T18:52:57;6.70;99.90
5621;DHT22;2832;50.864;12.186;2024-01-15T18:55:32;6.70;99.90
5621;DHT22;2832;50.864;12.186;2024-01-15T18:58:02;6.60;99.90
5621;DHT22;2832;50.864;12.186;2024-01-15T19:00:32;6.60;99.90
5621;DHT22;2832;50.864;12.186;2024-01-15T19:03:04;6.60;99.90
5621;DHT22;2832;50.864;12.186;2024-01-15T19:05:38;6.60;99.90
5621;DHT22;2832;50.864;12.186;2024-01-15T19:08:21;6.70;99.90
5621;DHT22;2832;50.864;12.186;2024-01-15T19:10:53;6.60;99.90
5621;DHT22;2832;50.864;12.186;2024-01-15T19:13:24;6.70;99.90
5621;DHT22;2832;50.864;12.186;2024-01-15T19:15:53;6.70;99.90
5621;DHT22;2832;50.864;12.186;2024-01-15T19:18:26;6.70;99.90
5621;DHT22;2832;50.864;12.186;2024-01-15T19:21:05;6.60;99.90
5621;DHT22;2832;50.864;12.186;2024-01-15T19:23:40;6.70;99.90
5621;DHT22;2832;50.864;12.186;2024-01-15T19:26:18;6.70;99.90
5621;DHT22;2832;50.864;12.186;2024-01-15T19:28:56;6.70;99.90
5621;DHT22;2832;50.864;12.186;2024-01-15T19:31:32;6.70;99.90
5621;DHT22;2832;50.864;12.186;2024-01-15T19:34:05;6.70;99.90
5621;DHT22;2832;50.864;12.186;2024-01-15T19:36:41;6.70;99.90
5621;DHT22;2832;50.864;12.186;2024-01-15T19:39:12;6.70;99.90
5621;DHT22;2832;50.864;12.186;2024-01-15T19:41:42;6.70;99.90
5621;DHT22;2832;50.864;12.186;2024-01-15T19:44:14;6.70;99.90
5621;DHT22;2832;50.864;12.186;2024-01-15T19:46:52;6.60;99.90
5621;DHT22;2832;50.864;12.186;2024-01-15T19:49:21;6.60;99.90
5621;DHT22;2832;50.864;12.186;2024-01-15T19:51:50;6.60;99.90
5621;DHT22;2832;50.864;12.186;2024-01-15T19:54:17;6.60;99.90
5621;DHT22;2832;50.864;12.186;2024-01-15T19:56:50;6.60;99.90
5621;DHT22;2832;50.864;12.186;2024-01-15T19:59:24;6.60;99.90
5621;DHT22;2832;50.864;12.186;2024-01-15T20:01:57;6.60;99.90
5621;DHT22;2832;50.864;12.186;2024-01-15T20:04:29;6.60;99.90
5621;DHT22;2832;50.864;12.186;2024-01-15T20:07:02;6.60;99.90
5621;DHT22;2832;50.864;12.186;2024-01-15T20:09:47;6.60;99.90
5621;DHT22;2832;50.864;12.186;2024-01-15T20:12:16;6.60;99.90
5621;DHT22;2832;50.864;12.186;2024-01-15T20:14:45;6.60;99.90
5621;DHT22;2832;50.864;12.186;2024-01-15T20:17:14;6.60;99.90
5621;DHT22;2832;50.864;12.186;2024-01-15T20:19:43;6.60;99.90
5621;DHT22;2832;50.864;12.186;2024-01-15T20:22:14;6.70;99.90